createdAt,value
2022-10-30T00:00:20.255Z,101475.91
2022-10-30T00:02:52.536Z,101468.81
2022-10-30T00:05:24.652Z,101467.91
2022-10-30T00:07:58.111Z,101471.44
2022-10-30T00:10:30.332Z,101465.09
2022-10-30T00:13:02.605Z,101446.34
2022-10-30T00:15:35.195Z,101455.28
2022-10-30T00:18:07.323Z,101474.88
2022-10-30T00:20:39.907Z,101471.31
2022-10-30T00:23:12.316Z,101469.47
2022-10-30T00:25:44.272Z,101469.41
2022-10-30T00:28:16.206Z,101478.28
2022-10-30T00:30:48.094Z,101472.03
2022-10-30T00:33:20.104Z,101466.66
2022-10-30T00:35:52.086Z,101473.72
2022-10-30T00:38:24.138Z,101469.22
2022-10-30T00:40:56.055Z,101473.59
2022-10-30T00:43:38.813Z,101428.91
2022-10-30T00:46:40.837Z,101457.41
2022-10-30T00:49:20.794Z,101461.88
2022-10-30T00:51:54.891Z,101454.75
2022-10-30T00:54:27.060Z,101462.78
2022-10-30T00:57:01.180Z,101443.91
2022-10-30T00:59:38.367Z,101467.97
2022-10-30T01:02:10.870Z,101435.72
2022-10-30T01:04:45.641Z,101460.72
2022-10-30T01:07:18.034Z,101460.69
2022-10-30T01:09:50.100Z,101449.91
2022-10-30T01:12:22.092Z,101448.09
2022-10-30T01:14:59.302Z,101464.97
2022-10-30T01:18:05.070Z,101456.72
2022-10-30T01:21:08.880Z,101449.56
2022-10-30T01:23:40.763Z,101469.22
2022-10-30T01:26:48.481Z,101472.69
2022-10-30T01:29:56.390Z,101474.28
2022-10-30T01:32:46.743Z,101465.28
2022-10-30T01:35:27.724Z,101450.13
2022-10-30T01:38:20.699Z,101472.38
2022-10-30T01:40:52.859Z,101466.13
2022-10-30T01:43:24.789Z,101458.84
2022-10-30T01:46:08.607Z,101480.31
2022-10-30T01:48:55.604Z,101478.47
2022-10-30T01:52:00.983Z,101483.72
2022-10-30T01:54:37.857Z,101475.66
2022-10-30T01:57:40.845Z,101482.72
2022-10-30T02:00:18.793Z,101483.56
2022-10-30T02:02:52.154Z,101473.63
2022-10-30T02:05:47.534Z,101463.81
2022-10-30T02:08:22.029Z,101491.47
2022-10-30T02:10:54.727Z,101483.56
2022-10-30T02:13:27.207Z,101494.19
2022-10-30T02:15:59.757Z,101497.66
2022-10-30T02:18:31.807Z,101492.28
2022-10-30T02:21:04.002Z,101491.41
2022-10-30T02:23:36.391Z,101492.28
2022-10-30T02:26:08.452Z,101493.13
2022-10-30T02:28:40.469Z,101496.53
2022-10-30T02:31:12.492Z,101511.53
2022-10-30T02:33:48.536Z,101494.63
2022-10-30T02:36:20.545Z,101507.06
2022-10-30T02:38:52.540Z,101480.25
2022-10-30T02:41:24.965Z,101502.56
2022-10-30T02:43:56.964Z,101503.44
2022-10-30T02:46:28.963Z,101501.59
2022-10-30T02:49:00.963Z,101501.53
2022-10-30T02:51:33.580Z,101497.88
2022-10-30T02:54:05.729Z,101507.75
2022-10-30T02:56:40.709Z,101512.22
2022-10-30T02:59:12.758Z,101508.59
2022-10-30T03:01:44.934Z,101499.59
2022-10-30T03:04:16.992Z,101467.41
2022-10-30T03:06:48.896Z,101498.81
2022-10-30T03:09:20.898Z,101500.56
2022-10-30T03:11:52.824Z,101468.38
2022-10-30T03:14:24.832Z,101495.09
2022-10-30T03:16:56.788Z,101487.97
2022-10-30T03:19:28.767Z,101465.50
2022-10-30T03:22:00.715Z,101496.91
2022-10-30T03:24:35.375Z,101486.19
2022-10-30T03:27:07.316Z,101495.94
2022-10-30T03:29:39.935Z,101497.63
2022-10-30T03:32:12.196Z,101494.00
2022-10-30T03:34:44.239Z,101477.91
2022-10-30T03:37:16.261Z,101478.03
2022-10-30T03:39:48.263Z,101486.84
2022-10-30T03:42:20.247Z,101494.03
2022-10-30T03:44:52.172Z,101493.13
2022-10-30T03:47:24.083Z,101474.38
2022-10-30T03:49:55.990Z,101471.78
2022-10-30T03:52:27.942Z,101496.75
2022-10-30T03:54:59.894Z,101496.75
2022-10-30T03:57:31.831Z,101503.81
2022-10-30T04:00:05.495Z,101503.78
2022-10-30T04:02:37.529Z,101491.25
2022-10-30T04:05:09.573Z,101501.03
2022-10-30T04:07:41.654Z,101508.97
2022-10-30T04:10:20.854Z,101500.97
2022-10-30T04:13:07.323Z,101505.31
2022-10-30T04:15:39.834Z,101508.91
2022-10-30T04:18:14.119Z,101512.47
2022-10-30T04:20:46.406Z,101497.28
2022-10-30T04:23:20.720Z,101507.94
2022-10-30T04:25:52.684Z,101504.41
2022-10-30T04:28:24.677Z,101495.47
2022-10-30T04:30:56.924Z,101508.00
2022-10-30T04:33:28.966Z,101514.19
2022-10-30T04:36:00.868Z,101513.22
2022-10-30T04:38:32.861Z,101508.75
2022-10-30T04:41:04.998Z,101506.94
2022-10-30T04:43:36.891Z,101478.38
2022-10-30T04:46:08.779Z,101496.44
2022-10-30T04:48:41.094Z,101482.09
2022-10-30T04:51:13.384Z,101501.75
2022-10-30T04:53:45.428Z,101466.00
2022-10-30T04:56:17.387Z,101487.53
2022-10-30T04:58:49.291Z,101487.53
2022-10-30T05:01:21.389Z,101473.34
2022-10-30T05:03:54.792Z,101464.47
2022-10-30T05:06:30.528Z,101458.94
2022-10-30T05:09:02.698Z,101475.88
2022-10-30T05:11:34.759Z,101450.75
2022-10-30T05:14:06.706Z,101467.69
2022-10-30T05:16:38.824Z,101471.41
2022-10-30T05:19:10.842Z,101476.66
2022-10-30T05:21:42.712Z,101459.66
2022-10-30T05:24:14.679Z,101472.22
2022-10-30T05:26:46.764Z,101473.00
2022-10-30T05:29:18.660Z,101456.81
2022-10-30T05:31:50.687Z,101458.47
2022-10-30T05:34:22.626Z,101475.53
2022-10-30T05:36:54.617Z,101459.19
2022-10-30T05:39:26.547Z,101482.50
2022-10-30T05:41:58.542Z,101485.00
2022-10-30T05:44:58.718Z,101456.25
2022-10-30T05:47:22.459Z,101461.53
2022-10-30T05:49:54.524Z,101471.38
2022-10-30T05:52:26.444Z,101487.34
2022-10-30T05:54:58.465Z,101486.44
2022-10-30T05:57:33.238Z,101460.38
2022-10-30T06:00:06.569Z,101475.44
2022-10-30T06:02:38.828Z,101488.88
2022-10-30T06:05:10.752Z,101482.50
2022-10-30T06:07:42.797Z,101490.50
2022-10-30T06:10:14.855Z,101442.97
2022-10-30T06:12:58.039Z,101492.06
2022-10-30T06:15:31.659Z,101492.91
2022-10-30T06:18:03.733Z,101491.03
2022-10-30T06:20:35.640Z,101498.00
2022-10-30T06:23:10.311Z,101502.38
2022-10-30T06:25:42.460Z,101490.78
2022-10-30T06:28:14.848Z,101487.41
2022-10-30T06:30:46.926Z,101485.22
2022-10-30T06:33:18.889Z,101487.06
2022-10-30T06:35:51.169Z,101483.50
2022-10-30T06:38:23.192Z,101489.66
2022-10-30T06:40:55.084Z,101471.69
2022-10-30T06:43:27.142Z,101480.56
2022-10-30T06:45:59.203Z,101490.31
2022-10-30T06:48:31.464Z,101477.00
2022-10-30T06:51:03.632Z,101483.19
2022-10-30T06:53:35.515Z,101484.00
2022-10-30T06:56:09.529Z,101484.00
2022-10-30T06:58:42.206Z,101483.06
2022-10-30T07:01:14.205Z,101483.97
2022-10-30T07:03:46.225Z,101483.97
2022-10-30T07:06:18.471Z,101444.59
2022-10-30T07:08:50.410Z,101483.06
2022-10-30T07:11:22.335Z,101479.53
2022-10-30T07:13:54.199Z,101480.47
2022-10-30T07:16:26.148Z,101462.72
2022-10-30T07:19:00.660Z,101469.88
2022-10-30T07:21:36.995Z,101474.38
2022-10-30T07:24:09.054Z,101474.56
2022-10-30T07:26:40.932Z,101476.31
2022-10-30T07:29:12.840Z,101476.47
2022-10-30T07:32:02.412Z,101469.41
2022-10-30T07:34:35.218Z,101465.06
2022-10-30T07:37:07.144Z,101475.06
2022-10-30T07:39:39.696Z,101454.53
2022-10-30T07:42:11.589Z,101483.28
2022-10-30T07:44:43.516Z,101475.41
2022-10-30T07:47:15.480Z,101476.47
2022-10-30T07:49:47.447Z,101472.09
2022-10-30T07:52:19.371Z,101457.97
2022-10-30T07:54:51.264Z,101471.53
2022-10-30T07:57:23.213Z,101470.75
2022-10-30T07:59:57.000Z,101471.66
2022-10-30T08:02:32.055Z,101473.56
2022-10-30T08:05:05.961Z,101460.47
2022-10-30T08:07:40.008Z,101438.38
2022-10-30T08:10:12.221Z,101442.34
2022-10-30T08:12:45.881Z,101478.38
2022-10-30T08:15:18.124Z,101453.53
2022-10-30T08:17:51.538Z,101470.03
2022-10-30T08:20:25.009Z,101464.91
2022-10-30T08:22:58.784Z,101467.63
2022-10-30T08:25:31.676Z,101439.16
2022-10-30T08:28:07.711Z,101383.75
2022-10-30T08:30:42.544Z,101442.81
2022-10-30T08:33:14.552Z,101470.53
2022-10-30T08:35:58.679Z,101480.44
2022-10-30T08:38:30.582Z,101476.22
2022-10-30T08:41:03.016Z,101469.31
2022-10-30T08:43:34.891Z,101468.47
2022-10-30T08:46:06.790Z,101461.38
2022-10-30T08:48:38.897Z,101422.16
2022-10-30T08:51:10.836Z,101441.94
2022-10-30T08:53:42.880Z,101462.63
2022-10-30T08:56:14.851Z,101446.69
2022-10-30T08:58:46.811Z,101442.44
2022-10-30T09:01:19.570Z,101446.94
2022-10-30T09:03:51.779Z,101453.28
2022-10-30T09:06:23.792Z,101460.66
2022-10-30T09:08:55.863Z,101462.69
2022-10-30T09:11:27.834Z,101459.38
2022-10-30T09:13:59.794Z,101385.41
2022-10-30T09:16:31.763Z,101416.91
2022-10-30T09:19:03.715Z,101456.41
2022-10-30T09:21:35.696Z,101449.50
2022-10-30T09:24:08.018Z,101444.31
2022-10-30T09:26:40.407Z,101437.38
2022-10-30T09:29:12.344Z,101434.84
2022-10-30T09:31:44.385Z,101423.28
2022-10-30T09:34:16.426Z,101419.75
2022-10-30T09:36:49.649Z,101430.50
2022-10-30T09:39:21.575Z,101409.09
2022-10-30T09:42:41.151Z,101435.91
2022-10-30T09:45:56.326Z,101437.69
2022-10-30T09:48:47.150Z,101445.75
2022-10-30T09:51:59.454Z,101451.06
2022-10-30T09:54:51.622Z,101463.47
2022-10-30T09:57:50.993Z,101472.28
2022-10-30T10:01:07.402Z,101464.22
2022-10-30T10:04:01.192Z,101469.53
2022-10-30T10:06:40.775Z,101415.91
2022-10-30T10:09:27.506Z,101462.38
2022-10-30T10:12:13.828Z,101445.44
2022-10-30T10:14:48.354Z,101449.03
2022-10-30T10:17:35.969Z,101438.38
2022-10-30T10:20:32.777Z,101446.53
2022-10-30T10:23:26.407Z,101448.38
2022-10-30T10:26:21.256Z,101456.56
2022-10-30T10:29:16.305Z,101452.19
2022-10-30T10:32:28.233Z,101449.56
2022-10-30T10:35:31.509Z,101434.41
2022-10-30T10:38:18.380Z,101432.63
2022-10-30T10:41:24.347Z,101405.97
2022-10-30T10:44:37.048Z,101431.78
2022-10-30T10:47:18.088Z,101431.78
2022-10-30T10:50:24.473Z,101408.56
2022-10-30T10:53:06.021Z,101419.28
2022-10-30T10:55:49.665Z,101434.50
2022-10-30T10:58:40.925Z,101439.88
2022-10-30T11:01:21.645Z,101434.50
2022-10-30T11:04:13.837Z,101438.09
2022-10-30T11:06:52.373Z,101411.34
2022-10-30T11:09:27.948Z,101434.53
2022-10-30T11:11:59.969Z,101412.22
2022-10-30T11:14:35.168Z,101422.91
2022-10-30T11:17:24.659Z,101420.25
2022-10-30T11:20:19.523Z,101355.13
2022-10-30T11:22:51.739Z,101373.84
2022-10-30T11:25:32.891Z,101354.25
2022-10-30T11:28:06.356Z,101416.66
2022-10-30T11:30:39.290Z,101420.25
2022-10-30T11:33:30.611Z,101394.38
2022-10-30T11:36:15.474Z,101334.63
2022-10-30T11:38:48.670Z,101329.31
2022-10-30T11:41:21.222Z,101414.00
2022-10-30T11:43:53.522Z,101415.78
2022-10-30T11:46:25.531Z,101410.41
2022-10-30T11:48:57.622Z,101391.69
2022-10-30T11:51:40.595Z,101402.38
2022-10-30T11:54:21.643Z,101391.69
2022-10-30T11:56:54.821Z,101405.97
2022-10-30T11:59:27.062Z,101400.59
2022-10-30T12:02:23.457Z,101397.06
2022-10-30T12:05:02.797Z,101399.75
2022-10-30T12:07:35.089Z,101404.22
2022-10-30T12:10:30.794Z,101412.25
2022-10-30T12:13:06.474Z,101391.72
2022-10-30T12:15:39.126Z,101389.06
2022-10-30T12:18:22.456Z,101388.16
2022-10-30T12:20:57.739Z,101389.03
2022-10-30T12:23:31.490Z,101393.50
2022-10-30T12:26:12.719Z,101380.06
2022-10-30T12:29:01.354Z,101365.81
2022-10-30T12:31:57.652Z,101361.34
2022-10-30T12:34:51.878Z,101388.09
2022-10-30T12:37:32.023Z,101367.59
2022-10-30T12:40:18.524Z,101361.34
2022-10-30T12:43:12.152Z,101379.22
2022-10-30T12:45:49.110Z,101358.72
2022-10-30T12:48:53.274Z,101320.34
2022-10-30T12:51:42.519Z,101391.69
2022-10-30T12:54:39.825Z,101358.72
2022-10-30T12:57:25.950Z,101347.13
2022-10-30T13:00:13.749Z,101341.78
2022-10-30T13:03:00.834Z,101356.91
2022-10-30T13:06:07.196Z,101372.06
2022-10-30T13:09:18.722Z,101358.63
2022-10-30T13:12:09.332Z,101367.41
2022-10-30T13:14:54.509Z,101366.38
2022-10-30T13:17:28.685Z,101341.38
2022-10-30T13:20:00.851Z,101361.00
2022-10-30T13:23:14.389Z,101349.50
2022-10-30T13:26:05.060Z,101364.72
2022-10-30T13:28:58.914Z,101357.69
2022-10-30T13:31:48.825Z,101364.88
2022-10-30T13:35:15.888Z,101374.69
2022-10-30T13:38:24.432Z,101374.72
2022-10-30T13:41:16.328Z,101357.78
2022-10-30T13:44:28.354Z,101375.63
2022-10-30T13:47:29.130Z,101347.13
2022-10-30T13:50:40.791Z,101372.09
2022-10-30T13:53:23.387Z,101368.53
2022-10-30T13:55:57.432Z,101347.13
2022-10-30T13:58:40.048Z,101313.25
2022-10-30T14:01:35.905Z,101374.78
2022-10-30T14:04:25.491Z,101375.66
2022-10-30T14:07:21.292Z,101373.00
2022-10-30T14:10:41.481Z,101358.72
2022-10-30T14:13:28.143Z,101375.59
2022-10-30T14:16:07.555Z,101356.88
2022-10-30T14:19:01.866Z,101367.63
2022-10-30T14:21:42.375Z,101384.59
2022-10-30T14:24:20.734Z,101381.00
2022-10-30T14:27:11.158Z,101376.56
2022-10-30T14:29:50.213Z,101361.41
2022-10-30T14:32:22.112Z,101383.69
2022-10-30T14:34:54.753Z,101393.50
2022-10-30T14:37:29.822Z,101388.16
2022-10-30T14:40:54.076Z,101358.69
2022-10-30T14:43:46.339Z,101343.47
2022-10-30T14:46:38.815Z,101360.19
2022-10-30T14:49:55.127Z,101380.75
2022-10-30T14:52:47.915Z,101389.72
2022-10-30T14:55:37.535Z,101366.56
2022-10-30T14:58:22.328Z,101385.13
2022-10-30T15:01:20.061Z,101393.97
2022-10-30T15:04:30.150Z,101397.63
2022-10-30T15:07:12.987Z,101391.41
2022-10-30T15:10:31.495Z,101392.31
2022-10-30T15:13:13.547Z,101362.00
2022-10-30T15:15:46.540Z,101408.41
2022-10-30T15:18:20.856Z,101411.19
2022-10-30T15:26:36.972Z,101352.50
2022-10-30T15:29:19.561Z,101414.88
2022-10-30T15:32:04.889Z,101414.00
2022-10-30T15:34:37.190Z,101428.25
2022-10-30T15:37:12.950Z,101416.63
2022-10-30T15:39:44.891Z,101431.75
2022-10-30T15:42:17.345Z,101458.47
2022-10-30T15:44:49.498Z,101426.34
2022-10-30T15:47:21.404Z,101446.84
2022-10-30T15:49:55.363Z,101464.69
2022-10-30T15:52:34.004Z,101475.34
2022-10-30T15:55:13.697Z,101491.38
2022-10-30T15:58:07.889Z,101453.75
2022-10-30T16:00:40.219Z,101452.84
2022-10-30T16:03:19.164Z,101501.94
2022-10-30T16:05:51.674Z,101449.16
2022-10-30T16:08:25.094Z,101497.31
2022-10-30T16:10:57.403Z,101510.66
2022-10-30T16:13:31.877Z,101516.94
2022-10-30T16:16:04.995Z,101528.44
2022-10-30T16:18:37.425Z,101514.06
2022-10-30T16:21:16.528Z,101537.19
2022-10-30T16:23:56.263Z,101541.66
2022-10-30T16:26:38.146Z,101543.66
2022-10-30T16:29:21.887Z,101546.03
2022-10-30T16:31:55.298Z,101540.59
2022-10-30T16:34:34.891Z,101536.16
2022-10-30T16:37:19.828Z,101537.00
2022-10-30T16:39:53.805Z,101540.66
2022-10-30T16:42:26.848Z,101530.84
2022-10-30T16:45:36.427Z,101551.22
2022-10-30T16:51:04.367Z,101545.69
2022-10-30T16:53:36.516Z,101563.56
2022-10-30T16:56:30.937Z,101552.81
2022-10-30T16:59:15.575Z,101560.72
2022-10-30T17:01:55.595Z,101559.03
2022-10-30T17:04:30.614Z,101550.06
2022-10-30T17:07:21.889Z,101581.19
2022-10-30T17:09:57.269Z,101595.41
2022-10-30T17:12:30.571Z,101594.47
2022-10-30T17:15:18.072Z,101591.78
2022-10-30T17:18:15.421Z,101574.91
2022-10-30T17:21:13.714Z,101540.09
2022-10-30T17:23:56.022Z,101577.66
2022-10-30T17:26:32.110Z,101581.22
2022-10-30T17:29:04.273Z,101582.06
2022-10-30T17:31:39.174Z,101590.09
2022-10-30T17:34:17.054Z,101585.63
2022-10-30T17:36:49.464Z,101573.06
2022-10-30T17:39:32.568Z,101602.44
2022-10-30T17:42:04.997Z,101613.97
2022-10-30T17:44:37.640Z,101600.50
2022-10-30T17:47:18.902Z,101602.22
2022-10-30T17:49:51.032Z,101620.06
2022-10-30T17:52:23.006Z,101619.16
2022-10-30T17:54:55.411Z,101604.78
2022-10-30T17:57:28.895Z,101597.59
2022-10-30T18:00:04.190Z,101605.50
2022-10-30T18:02:36.796Z,101637.72
2022-10-30T18:05:22.680Z,101630.41
2022-10-30T18:07:54.630Z,101648.31
2022-10-30T18:10:30.337Z,101658.03
2022-10-30T18:13:07.224Z,101662.38
2022-10-30T18:15:44.358Z,101524.50
2022-10-30T18:18:16.420Z,101652.50
2022-10-30T18:20:48.596Z,101608.41
2022-10-30T18:23:51.966Z,101675.63
2022-10-30T18:26:20.093Z,101679.94
2022-10-30T18:28:52.833Z,101661.00
2022-10-30T18:31:24.997Z,101677.06
2022-10-30T18:33:56.959Z,101677.84
2022-10-30T18:36:29.030Z,101695.81
2022-10-30T18:39:02.236Z,101678.09
2022-10-30T18:41:38.333Z,101683.31
2022-10-30T18:44:18.666Z,101688.47
2022-10-30T18:46:50.657Z,101678.72
2022-10-30T18:49:24.536Z,101692.03
2022-10-30T18:51:56.652Z,101692.59
2022-10-30T18:54:28.863Z,101698.38
2022-10-30T18:57:03.064Z,101695.59
2022-10-30T18:59:35.073Z,101699.16
2022-10-30T19:02:24.287Z,101639.88
2022-10-30T19:04:56.874Z,101689.09
2022-10-30T19:07:28.936Z,101586.09
2022-10-30T19:10:04.207Z,101690.00
2022-10-30T19:12:38.740Z,101673.91
2022-10-30T19:15:19.377Z,101706.03
2022-10-30T19:17:51.549Z,101656.69
2022-10-30T19:20:37.675Z,101623.53
2022-10-30T19:23:23.394Z,101677.13
2022-10-30T19:25:55.611Z,101568.72
2022-10-30T19:28:27.587Z,101708.41
2022-10-30T19:30:59.701Z,101698.53
2022-10-30T19:33:31.798Z,101706.50
2022-10-30T19:36:05.460Z,101705.47
2022-10-30T19:38:37.329Z,101721.47
2022-10-30T19:41:10.262Z,101730.38
2022-10-30T19:43:42.202Z,101734.78
2022-10-30T19:46:15.451Z,101722.13
2022-10-30T19:48:57.397Z,101731.97
2022-10-30T19:51:30.591Z,101734.66
2022-10-30T19:54:05.292Z,101740.94
2022-10-30T19:56:37.330Z,101724.69
2022-10-30T19:59:13.580Z,101744.38
2022-10-30T20:01:45.754Z,101663.72
2022-10-30T20:04:17.774Z,101745.19
2022-10-30T20:06:49.889Z,101727.25
2022-10-30T20:09:23.877Z,101715.66
2022-10-30T20:11:55.868Z,101735.44
2022-10-30T20:14:27.805Z,101727.25
2022-10-30T20:16:59.833Z,101703.03
2022-10-30T20:19:32.907Z,101729.03
2022-10-30T20:22:04.914Z,101736.00
2022-10-30T20:24:36.805Z,101747.53
2022-10-30T20:27:10.909Z,101727.75
2022-10-30T20:29:46.768Z,101743.91
2022-10-30T20:32:18.977Z,101706.28
2022-10-30T20:34:51.224Z,101728.59
2022-10-30T20:37:23.874Z,101725.84
2022-10-30T20:39:55.960Z,101731.09
2022-10-30T20:42:30.837Z,101723.97
2022-10-30T20:45:06.131Z,101714.75
2022-10-30T20:47:38.251Z,101758.66
2022-10-30T20:50:11.704Z,101773.66
2022-10-30T20:52:43.989Z,101767.31
2022-10-30T20:55:16.267Z,101746.72
2022-10-30T20:57:48.419Z,101780.63
2022-10-30T21:00:20.526Z,101792.03
2022-10-30T21:02:52.537Z,101789.31
2022-10-30T21:05:42.789Z,101791.91
2022-10-30T21:08:16.146Z,101779.28
2022-10-30T21:10:48.093Z,101797.25
2022-10-30T21:13:20.053Z,101796.31
2022-10-30T21:15:52.062Z,101808.75
2022-10-30T21:18:23.989Z,101806.97
2022-10-30T21:21:01.755Z,101806.00
2022-10-30T21:23:34.143Z,101780.84
2022-10-30T21:26:11.003Z,101799.69
2022-10-30T21:28:42.995Z,101783.41
2022-10-30T21:31:15.090Z,101811.19
2022-10-30T21:33:47.329Z,101760.84
2022-10-30T21:36:23.517Z,101777.88
2022-10-30T21:38:58.238Z,101802.88
2022-10-30T21:41:30.540Z,101829.72
2022-10-30T21:44:05.352Z,101817.16
2022-10-30T21:46:37.415Z,101831.41
2022-10-30T21:49:14.751Z,101794.59
2022-10-30T21:51:49.827Z,101783.78
2022-10-30T21:54:22.078Z,101803.59
2022-10-30T21:56:59.454Z,101831.31
2022-10-30T21:59:31.824Z,101813.28
2022-10-30T22:02:04.074Z,101830.25
2022-10-30T22:04:36.041Z,101844.53
2022-10-30T22:07:08.232Z,101825.72
2022-10-30T22:09:40.263Z,101846.22
2022-10-30T22:12:12.399Z,101839.00
2022-10-30T22:14:44.339Z,101854.16
2022-10-30T22:17:16.402Z,101815.75
2022-10-30T22:19:48.376Z,101838.16
2022-10-30T22:22:21.574Z,101830.88
2022-10-30T22:24:53.490Z,101838.88
2022-10-30T22:27:25.422Z,101808.41
2022-10-30T22:29:57.404Z,101820.97
2022-10-30T22:32:29.490Z,101839.72
2022-10-30T22:35:04.873Z,101839.66
2022-10-30T22:37:36.790Z,101815.59
2022-10-30T22:40:09.514Z,101832.53
2022-10-30T22:42:41.480Z,101854.81
2022-10-30T22:45:13.398Z,101859.22
2022-10-30T22:47:45.344Z,101869.00
2022-10-30T22:50:17.640Z,101829.44
2022-10-30T22:52:49.548Z,101861.72
2022-10-30T22:55:21.507Z,101862.72
2022-10-30T22:57:54.823Z,101843.94
2022-10-30T23:00:32.697Z,101854.59
2022-10-30T23:03:04.813Z,101850.91
2022-10-30T23:05:36.840Z,101855.44
2022-10-30T23:08:08.979Z,101865.16
2022-10-30T23:10:40.958Z,101869.72
2022-10-30T23:13:12.988Z,101845.53
2022-10-30T23:15:45.091Z,101838.16
2022-10-30T23:18:17.610Z,101844.50
2022-10-30T23:20:49.569Z,101871.38
2022-10-30T23:23:21.548Z,101861.47
2022-10-30T23:25:53.507Z,101856.91
2022-10-30T23:28:25.600Z,101852.31
2022-10-30T23:30:57.680Z,101842.50
2022-10-30T23:33:29.683Z,101814.53
2022-10-30T23:36:04.143Z,101862.13
2022-10-30T23:38:36.071Z,101834.22
2022-10-30T23:41:08.349Z,101862.03
2022-10-30T23:43:40.276Z,101847.50
2022-10-30T23:46:12.317Z,101865.41
2022-10-30T23:48:44.278Z,101864.41
2022-10-30T23:51:16.541Z,101859.94
2022-10-30T23:53:48.872Z,101852.75
2022-10-30T23:56:21.462Z,101852.75
2022-10-30T23:58:53.510Z,101830.16
